HTDO Airport Information

Runway Information
Runway 10 Length 6700 ft width 98 ft
Elevation 3670 ft Threshold 0 ft Heading 91
Runway 28 Length 6700 ft Width 98 ft
Elevation 3684 ft Threshold 0 ft Heading 271
Airport Frequencies
Type APP Name APP Frequency 119.2 MHZ
Type TWR Name TWR Frequency 119.2 MHZ
Airport Navaids
Type NDB Name Dodoma Frequency 373 KHZ
Airport Weather Information & NOTAM
ADDS - METARS form results

(2256 UTC 28 September 2021)
Data provider http://aviationweather.gov/metar/data/
 
Forecast for: HTDO (DODOMA , TZ)
Text: HTDO 281700Z 2818/2918 08013KT 9999 NSC
Forecast period: 1800 UTC 28 September 2021 to 1800 UTC 29 September 2021
Forecast type: FROM: standard forecast or significant change
Winds: from the E (80 degrees) at 15 MPH (13 knots; 6.7 m/s)
Visibility: 6 or more miles (10+ km)
Ceiling: unknown
Clouds: missing
Weather: no significant weather forecast for this period